Time;durP1;ratioP1;P1;durP2;ratioP2;P2;SDS_P1;SDS_P2;PMS_P1;PMS_P2;Temp;Humidity;BMP_temperature;BMP_pressure;BME280_temperature;BME280_humidity;BME280_pressure;Samples;Min_cycle;Max_cycle;Signal;HPM_P1;HPM_P2
2022/12/10 00:00:39;;;;;;;55.13;31.90;;;-1.80;99.90;;;;;;5063763;28;20056;-79
2022/12/10 00:03:05;;;;;;;54.97;31.75;;;-0.90;99.90;;;;;;5082221;28;20079;-79
2022/12/10 00:05:33;;;;;;;53.88;30.83;;;-1.00;99.90;;;;;;5055117;28;20048;-79
2022/12/10 00:07:59;;;;;;;54.75;31.40;;;-1.80;99.90;;;;;;5055524;28;20040;-80
2022/12/10 00:10:25;;;;;;;55.75;31.80;;;-1.80;99.90;;;;;;5083872;28;20053;-78
2022/12/10 00:12:50;;;;;;;54.65;31.75;;;-1.90;99.90;;;;;;5089254;28;20048;-78
2022/12/10 00:15:16;;;;;;;53.80;31.67;;;-1.90;99.90;;;;;;5084632;28;20526;-79
2022/12/10 00:17:42;;;;;;;50.78;30.77;;;-1.90;99.90;;;;;;5088361;28;20040;-78
2022/12/10 00:20:09;;;;;;;51.88;31.80;;;-1.90;99.90;;;;;;5072982;28;20045;-79
2022/12/10 00:22:35;;;;;;;54.08;30.77;;;-2.00;99.90;;;;;;5069250;28;20070;-79
2022/12/10 00:25:01;;;;;;;52.78;31.65;;;-1.90;99.90;;;;;;5072994;28;20480;-78
2022/12/10 00:27:26;;;;;;;55.75;32.72;;;-1.90;99.90;;;;;;5055759;28;20048;-79
2022/12/10 00:29:52;;;;;;;53.63;31.13;;;-2.00;99.90;;;;;;5078587;28;20426;-78
2022/12/10 00:32:17;;;;;;;53.17;31.35;;;-2.00;99.90;;;;;;5060397;28;20076;-79
2022/12/10 00:34:43;;;;;;;55.42;30.67;;;-1.60;99.90;;;;;;5060188;28;20472;-79
2022/12/10 00:37:09;;;;;;;60.17;31.95;;;-2.00;99.90;;;;;;5064867;28;20044;-79
2022/12/10 00:39:34;;;;;;;55.55;31.55;;;-2.00;99.90;;;;;;5058440;28;20048;-79
2022/12/10 00:42:01;;;;;;;54.38;31.08;;;-2.00;99.90;;;;;;5075649;28;20048;-80
2022/12/10 00:44:27;;;;;;;52.75;30.42;;;-2.10;99.90;;;;;;5075154;28;20050;-79
2022/12/10 00:46:53;;;;;;;53.42;30.98;;;-1.30;99.90;;;;;;5061208;28;20459;-79
2022/12/10 00:49:18;;;;;;;58.53;32.80;;;-1.10;99.90;;;;;;5070765;28;20514;-79
2022/12/10 00:51:44;;;;;;;59.00;33.03;;;-2.00;99.90;;;;;;5074850;28;20046;-79
2022/12/10 00:54:11;;;;;;;59.58;32.83;;;-2.10;99.90;;;;;;5055062;28;20397;-79
2022/12/10 00:56:37;;;;;;;60.55;32.97;;;-2.00;99.90;;;;;;5057906;28;20094;-79
2022/12/10 00:59:04;;;;;;;62.67;34.28;;;-2.00;99.90;;;;;;5079638;28;20049;-79
2022/12/10 01:01:35;;;;;;;58.50;32.45;;;-2.00;99.90;;;;;;5068443;28;22146;-79
2022/12/10 01:04:11;;;;;;;62.08;34.03;;;-2.00;99.90;;;;;;5064007;28;20040;-79
2022/12/10 01:06:44;;;;;;;63.72;34.17;;;-2.00;99.90;;;;;;5068029;28;20043;-79
2022/12/10 01:09:11;;;;;;;70.95;35.33;;;-2.00;99.90;;;;;;5091605;28;20040;-79
2022/12/10 01:11:39;;;;;;;76.63;36.35;;;-1.90;99.90;;;;;;5083269;28;20514;-79
2022/12/10 01:14:07;;;;;;;76.45;37.70;;;-1.90;99.90;;;;;;5060521;28;20056;-79
2022/12/10 01:16:33;;;;;;;66.18;35.45;;;-1.10;99.90;;;;;;5072089;28;20064;-78
2022/12/10 01:19:00;;;;;;;69.85;34.83;;;-1.50;99.90;;;;;;5075082;28;20040;-79
2022/12/10 01:21:28;;;;;;;79.95;37.97;;;-1.70;99.90;;;;;;5061267;28;20046;-79
2022/12/10 01:23:54;;;;;;;78.40;37.42;;;-1.60;99.90;;;;;;5070590;28;20384;-78
2022/12/10 01:26:23;;;;;;;75.20;37.13;;;-1.60;99.90;;;;;;5058831;28;20056;-78
2022/12/10 01:28:50;;;;;;;78.20;38.33;;;-1.60;99.90;;;;;;5062488;28;20074;-79
2022/12/10 01:31:19;;;;;;;71.00;36.53;;;-1.50;99.90;;;;;;5068668;28;20051;-79
2022/12/10 01:33:45;;;;;;;79.80;38.00;;;-1.50;99.90;;;;;;5067637;28;20377;-78
2022/12/10 01:36:18;;;;;;;79.68;38.72;;;-0.70;99.90;;;;;;5065388;28;20055;-79
2022/12/10 01:38:44;;;;;;;76.40;39.20;;;-1.40;99.90;;;;;;5068373;28;20075;-79
2022/12/10 01:41:16;;;;;;;79.93;39.28;;;-1.40;99.90;;;;;;5058298;28;20052;-80
2022/12/10 01:43:48;;;;;;;85.55;39.78;;;-1.30;99.90;;;;;;5055022;28;20514;-79
2022/12/10 01:46:14;;;;;;;77.78;37.00;;;-1.30;99.90;;;;;;5075149;28;20075;-80
2022/12/10 01:48:40;;;;;;;75.65;37.55;;;-1.30;99.90;;;;;;5063817;28;20059;-80
2022/12/10 01:51:06;;;;;;;80.35;39.47;;;-1.20;99.90;;;;;;5058382;28;20135;-79
2022/12/10 01:53:33;;;;;;;77.65;39.33;;;-1.20;99.90;;;;;;5054624;28;20056;-80
2022/12/10 01:55:58;;;;;;;77.68;38.47;;;-0.70;99.90;;;;;;5084568;28;20135;-83
2022/12/10 01:58:24;;;;;;;80.05;38.33;;;-0.80;99.90;;;;;;5071157;28;20144;-79
2022/12/10 02:01:11;;;;;;;75.85;37.50;;;-1.10;99.90;;;;;;5071335;28;20040;-79
2022/12/10 02:03:49;;;;;;;74.28;38.45;;;-1.10;99.90;;;;;;5091196;28;20079;-79
2022/12/10 02:06:37;;;;;;;77.43;38.63;;;-1.10;99.90;;;;;;5090142;28;20051;-80
2022/12/10 02:09:23;;;;;;;75.32;37.80;;;-1.10;99.90;;;;;;5088125;28;20444;-80
2022/12/10 02:12:14;;;;;;;75.57;35.88;;;-1.20;99.90;;;;;;5088152;28;20072;-80
2022/12/10 02:14:58;;;;;;;75.88;36.55;;;-1.10;99.90;;;;;;5052541;28;20412;-79
2022/12/10 02:17:28;;;;;;;76.05;37.25;;;-1.10;99.90;;;;;;5102071;28;20122;-79
2022/12/10 02:20:03;;;;;;;74.00;37.83;;;-1.20;99.90;;;;;;5078045;28;20067;-79
2022/12/10 02:22:34;;;;;;;72.68;35.90;;;-1.20;99.90;;;;;;5087382;28;20044;-80
2022/12/10 02:25:01;;;;;;;74.28;38.08;;;-0.40;99.90;;;;;;5077561;28;20053;-80
2022/12/10 02:27:40;;;;;;;70.68;35.38;;;-0.40;99.90;;;;;;5079993;28;20087;-79
2022/12/10 02:30:06;;;;;;;68.05;34.88;;;-1.00;99.90;;;;;;5080116;28;20481;-79
2022/12/10 02:32:41;;;;;;;62.38;31.90;;;-1.00;99.90;;;;;;5075334;28;20044;-78
2022/12/10 02:35:24;;;;;;;73.28;37.55;;;-0.90;99.90;;;;;;5086736;28;20483;-79
2022/12/10 02:37:51;;;;;;;;;;;-0.90;99.90;;;;;;5097684;28;20044;-79
2022/12/10 02:40:23;;;;;;;71.68;35.30;;;-0.50;99.90;;;;;;5094449;28;19955;-79
2022/12/10 02:42:51;;;;;;;70.53;36.08;;;-1.00;99.90;;;;;;5086180;28;20129;-79
2022/12/10 02:45:19;;;;;;;70.85;36.80;;;-0.70;99.90;;;;;;5069953;28;20489;-79
2022/12/10 02:47:46;;;;;;;71.20;36.92;;;-1.20;99.90;;;;;;5092190;28;20081;-80
2022/12/10 02:50:15;;;;;;;74.15;38.30;;;-1.20;99.90;;;;;;5084490;28;20079;-80
2022/12/10 02:52:40;;;;;;;73.65;37.33;;;-1.30;99.90;;;;;;5078101;28;20052;-79
2022/12/10 02:55:10;;;;;;;74.22;37.38;;;-1.30;99.90;;;;;;5073857;28;20041;-80
2022/12/10 02:57:44;;;;;;;79.03;37.70;;;-1.40;99.90;;;;;;5073745;28;20049;-80
2022/12/10 03:00:18;;;;;;;78.75;38.80;;;-1.40;99.90;;;;;;5090182;28;20052;-79
2022/12/10 03:03:00;;;;;;;75.03;36.78;;;-1.40;99.90;;;;;;5092562;28;20048;-80
2022/12/10 03:06:05;;;;;;;71.85;36.80;;;-1.40;99.90;;;;;;5094144;28;20049;-79
2022/12/10 03:08:40;;;;;;;74.53;35.72;;;-1.40;99.90;;;;;;5108036;28;20059;-80
2022/12/10 03:11:13;;;;;;;73.53;37.47;;;-1.40;99.90;;;;;;5106195;28;20492;-80
2022/12/10 03:13:47;;;;;;;76.43;38.15;;;-1.40;99.90;;;;;;5091989;28;20052;-81
2022/12/10 03:16:15;;;;;;;76.00;38.20;;;-1.40;99.90;;;;;;5089258;28;20056;-80
2022/12/10 03:18:43;;;;;;;72.38;35.88;;;-1.50;99.90;;;;;;5093801;28;20046;-80
2022/12/10 03:21:10;;;;;;;74.72;36.40;;;-0.90;99.90;;;;;;5076420;28;20040;-79
2022/12/10 03:23:40;;;;;;;77.15;38.03;;;-1.50;99.90;;;;;;5086207;28;20079;-80
2022/12/10 03:26:06;;;;;;;69.60;34.75;;;-1.50;99.90;;;;;;5093925;28;20110;-80
2022/12/10 03:28:40;;;;;;;71.97;35.13;;;-0.70;99.90;;;;;;5089851;28;20052;-79
2022/12/10 03:31:08;;;;;;;77.38;38.08;;;-1.50;99.90;;;;;;5077030;28;20509;-79
2022/12/10 03:33:34;;;;;;;73.95;36.50;;;-1.10;99.90;;;;;;5087564;28;20056;-79
2022/12/10 03:36:00;;;;;;;75.55;36.50;;;-1.40;99.90;;;;;;5093297;28;20427;-81
2022/12/10 03:38:26;;;;;;;77.07;37.92;;;-1.40;99.90;;;;;;5090084;28;20123;-79
2022/12/10 03:40:52;;;;;;;77.15;37.05;;;-1.30;99.90;;;;;;5090132;28;20087;-78
2022/12/10 03:43:17;;;;;;;78.55;39.50;;;-1.40;99.90;;;;;;5056956;28;20048;-80
2022/12/10 03:45:43;;;;;;;81.80;39.17;;;-1.40;99.90;;;;;;5088160;28;20435;-80
2022/12/10 03:48:09;;;;;;;81.00;39.60;;;-1.50;99.90;;;;;;5093644;28;20040;-81
2022/12/10 03:50:34;;;;;;;84.43;39.53;;;-1.60;99.90;;;;;;5093966;28;20055;-80
2022/12/10 03:53:00;;;;;;;80.47;40.00;;;-1.60;99.90;;;;;;5075466;28;20046;-80
2022/12/10 03:55:26;;;;;;;83.40;39.88;;;-0.90;99.90;;;;;;5060181;28;20060;-80
2022/12/10 03:57:52;;;;;;;76.88;39.25;;;-1.70;99.90;;;;;;5078182;28;20494;-80
2022/12/10 04:00:17;;;;;;;74.80;38.58;;;-1.70;99.90;;;;;;5059943;28;20071;-79
2022/12/10 04:02:43;;;;;;;85.90;40.55;;;-1.80;99.90;;;;;;5074130;28;20052;-79
2022/12/10 04:05:09;;;;;;;82.90;40.35;;;-1.70;99.90;;;;;;5075612;28;20037;-80
2022/12/10 04:07:35;;;;;;;73.57;37.17;;;-1.70;99.90;;;;;;5085345;28;20177;-80
2022/12/10 04:10:01;;;;;;;77.40;39.67;;;-1.70;99.90;;;;;;5087443;28;20074;-79
2022/12/10 04:12:26;;;;;;;82.57;38.90;;;-1.70;99.90;;;;;;5083925;28;20427;-80
2022/12/10 04:17:36;;;;;;;83.70;39.80;;;-1.80;99.90;;;;;;5078475;28;20071;-81
2022/12/10 04:20:02;;;;;;;81.13;40.03;;;-1.90;99.90;;;;;;5075584;28;20483;-81
2022/12/10 04:27:57;;;;;;;77.90;36.20;;;-1.90;99.90;;;;;;5085562;28;20455;-79
2022/12/10 04:30:23;;;;;;;77.28;36.78;;;-1.20;99.90;;;;;;5091192;28;20048;-79
2022/12/10 04:32:48;;;;;;;73.07;35.20;;;-1.70;99.90;;;;;;5062273;28;20483;-79
2022/12/10 04:35:14;;;;;;;87.50;40.50;;;-1.70;99.90;;;;;;5055927;28;20052;-80
2022/12/10 04:37:40;;;;;;;83.03;40.78;;;-1.70;99.90;;;;;;5071423;28;20120;-80
2022/12/10 04:40:06;;;;;;;84.15;40.78;;;-1.80;99.90;;;;;;5083597;28;20048;-80
2022/12/10 04:42:33;;;;;;;82.40;41.08;;;-1.80;99.90;;;;;;5092239;28;20044;-80
2022/12/10 04:44:58;;;;;;;82.00;38.63;;;-1.90;99.90;;;;;;5066317;28;20056;-80
2022/12/10 04:47:24;;;;;;;81.63;39.42;;;-1.60;99.90;;;;;;5092156;28;20044;-79
2022/12/10 04:49:50;;;;;;;91.85;41.92;;;-1.90;99.90;;;;;;5092509;28;20051;-79
2022/12/10 04:52:17;;;;;;;79.25;39.50;;;-1.90;99.90;;;;;;5044410;28;20048;-80
2022/12/10 04:54:43;;;;;;;89.40;41.45;;;-1.90;99.90;;;;;;5071407;28;20044;-80
2022/12/10 04:57:10;;;;;;;93.47;42.17;;;-1.90;99.90;;;;;;5055322;28;20041;-80
2022/12/10 04:59:37;;;;;;;85.80;40.80;;;-2.00;99.90;;;;;;5089430;28;20052;-79
2022/12/10 05:02:04;;;;;;;86.60;41.67;;;-0.90;99.90;;;;;;5073471;28;20041;-79
2022/12/10 05:04:30;;;;;;;84.07;40.38;;;-2.00;99.90;;;;;;5073432;28;20047;-80
2022/12/10 05:06:55;;;;;;;86.88;42.53;;;-2.00;99.90;;;;;;5091275;28;20043;-80
2022/12/10 05:09:22;;;;;;;83.53;40.25;;;-1.30;99.90;;;;;;5071769;28;20048;-80
2022/12/10 05:11:48;;;;;;;91.93;42.38;;;-2.00;99.90;;;;;;5077658;28;20051;-80
2022/12/10 05:14:15;;;;;;;86.00;41.08;;;-1.10;99.90;;;;;;5064031;28;20045;-80
2022/12/10 05:16:41;;;;;;;86.00;41.00;;;-2.10;99.90;;;;;;5085439;28;20323;-81
2022/12/10 05:19:09;;;;;;;86.72;41.42;;;-2.10;99.90;;;;;;5082335;28;20055;-80
2022/12/10 05:24:19;;;;;;;88.15;41.85;;;-2.20;99.90;;;;;;5077929;28;20476;-80
2022/12/10 05:26:45;;;;;;;90.50;42.65;;;-2.10;99.90;;;;;;5073354;28;20045;-80
2022/12/10 05:29:12;;;;;;;81.03;40.17;;;-2.30;99.90;;;;;;5080773;28;20040;-80
2022/12/10 05:31:38;;;;;;;82.28;37.90;;;-1.50;99.90;;;;;;5076078;28;20433;-80
2022/12/10 05:34:04;;;;;;;81.45;36.30;;;-2.10;99.90;;;;;;5072626;28;20078;-80
2022/12/10 05:36:31;;;;;;;82.22;39.38;;;-1.90;99.90;;;;;;5071056;28;20048;-79
2022/12/10 05:38:58;;;;;;;85.20;40.00;;;-1.90;99.90;;;;;;5075108;28;20055;-81
2022/12/10 05:41:29;;;;;;;89.85;41.88;;;-2.00;99.90;;;;;;5071593;28;20083;-80
2022/12/10 05:43:57;;;;;;;68.28;32.70;;;-2.10;99.90;;;;;;5071424;28;20079;-80
2022/12/10 05:46:29;;;;;;;88.72;42.30;;;-2.10;99.90;;;;;;5096594;28;20480;-80
2022/12/10 05:48:54;;;;;;;88.93;40.90;;;-2.10;99.90;;;;;;5098600;28;20146;-80
2022/12/10 05:51:23;;;;;;;94.85;43.08;;;-1.60;99.90;;;;;;5092147;28;20123;-80
2022/12/10 05:53:50;;;;;;;96.78;43.83;;;-1.90;99.90;;;;;;5086734;28;20080;-80
2022/12/10 05:56:21;;;;;;;92.95;43.70;;;-1.50;99.90;;;;;;5092098;28;20400;-80
2022/12/10 05:58:48;;;;;;;98.82;44.70;;;-1.30;99.90;;;;;;5088617;28;20434;-80
2022/12/10 06:01:16;;;;;;;100.75;44.17;;;-2.10;99.90;;;;;;5077914;28;20048;-79
2022/12/10 06:03:42;;;;;;;96.95;43.40;;;-2.00;99.90;;;;;;5088712;28;20131;-79
2022/12/10 06:06:09;;;;;;;92.10;41.83;;;-2.00;99.90;;;;;;5090474;28;20147;-80
2022/12/10 06:08:35;;;;;;;93.75;44.40;;;-2.00;99.90;;;;;;5078282;28;20439;-80
2022/12/10 06:11:06;;;;;;;95.10;43.78;;;-2.00;99.90;;;;;;5077585;28;20052;-81
2022/12/10 06:13:32;;;;;;;98.65;44.20;;;-2.00;99.90;;;;;;5077900;28;20048;-79
2022/12/10 06:15:58;;;;;;;101.18;45.28;;;-2.10;99.90;;;;;;5080409;28;20045;-80
2022/12/10 06:18:23;;;;;;;91.82;43.05;;;-2.10;99.90;;;;;;5095375;28;20036;-80
2022/12/10 06:20:49;;;;;;;91.07;43.15;;;-2.10;99.90;;;;;;5067800;28;20048;-79
2022/12/10 06:23:15;;;;;;;96.45;43.60;;;-2.10;99.90;;;;;;5041969;28;20053;-82
2022/12/10 06:25:41;;;;;;;88.60;40.50;;;-2.00;99.90;;;;;;5081554;28;20040;-80
2022/12/10 06:28:08;;;;;;;96.97;44.20;;;-2.00;99.90;;;;;;5083634;28;20043;-80
2022/12/10 06:30:35;;;;;;;96.45;43.45;;;-1.90;99.90;;;;;;5094529;28;20086;-80
2022/12/10 06:33:01;;;;;;;95.85;43.20;;;-2.00;99.90;;;;;;5086005;28;20044;-80
2022/12/10 06:35:27;;;;;;;110.25;45.22;;;-2.00;99.90;;;;;;5095895;28;20051;-81
2022/12/10 06:37:52;;;;;;;96.32;43.08;;;-2.00;99.90;;;;;;5070248;28;20033;-80
2022/12/10 06:40:18;;;;;;;104.05;44.35;;;-2.10;99.90;;;;;;5083833;28;20044;-80
2022/12/10 06:42:44;;;;;;;104.30;45.25;;;-2.10;99.90;;;;;;5097167;28;20035;-80
2022/12/10 06:45:10;;;;;;;106.10;45.95;;;-2.10;99.90;;;;;;5097842;28;20080;-80
2022/12/10 06:47:36;;;;;;;106.35;45.33;;;-1.30;99.90;;;;;;5097436;28;20137;-80
2022/12/10 06:50:02;;;;;;;103.18;46.00;;;-2.10;99.90;;;;;;5081061;28;20170;-80
2022/12/10 06:52:28;;;;;;;94.63;43.88;;;-2.20;99.90;;;;;;5095553;28;20036;-80
2022/12/10 06:54:55;;;;;;;99.97;41.78;;;-1.80;99.90;;;;;;5083483;28;20102;-79
2022/12/10 06:57:21;;;;;;;108.70;46.67;;;-2.10;99.90;;;;;;5059185;28;20051;-80
2022/12/10 06:59:47;;;;;;;111.65;45.10;;;-2.10;99.90;;;;;;5093518;28;20048;-80
2022/12/10 07:02:12;;;;;;;106.28;45.28;;;-1.50;99.90;;;;;;5074427;28;20396;-80
2022/12/10 07:04:38;;;;;;;112.18;48.15;;;-2.10;99.90;;;;;;5091702;28;20048;-79
2022/12/10 07:07:06;;;;;;;104.90;45.58;;;-2.10;99.90;;;;;;5039666;28;20052;-80
2022/12/10 07:09:33;;;;;;;105.05;45.60;;;-2.00;99.90;;;;;;5078119;28;20048;-80
2022/12/10 07:11:58;;;;;;;103.43;44.35;;;-2.00;99.90;;;;;;5044743;28;20056;-80
2022/12/10 07:14:24;;;;;;;96.75;42.72;;;-2.00;99.90;;;;;;5069361;28;20459;-80
2022/12/10 07:16:50;;;;;;;106.22;46.10;;;-1.90;99.90;;;;;;5058548;28;20050;-80
2022/12/10 07:19:15;;;;;;;92.43;43.35;;;-1.90;99.90;;;;;;5072623;28;20102;-79
2022/12/10 07:21:42;;;;;;;97.15;43.63;;;-1.90;99.90;;;;;;5085175;28;20048;-80
2022/12/10 07:24:16;;;;;;;85.65;39.22;;;-1.90;99.90;;;;;;5071609;28;20048;-79
2022/12/10 07:26:44;;;;;;;86.18;37.58;;;-1.90;99.90;;;;;;5070817;28;20055;-79
2022/12/10 07:29:15;;;;;;;87.95;39.45;;;-1.10;99.90;;;;;;5083016;28;20049;-79
2022/12/10 07:31:41;;;;;;;87.75;39.55;;;-1.80;99.90;;;;;;5077004;28;20052;-79
2022/12/10 07:34:08;;;;;;;83.88;39.35;;;-0.90;99.90;;;;;;5073357;28;20091;-79
2022/12/10 07:36:34;;;;;;;81.25;37.72;;;-1.80;99.90;;;;;;5078482;28;20044;-80
2022/12/10 07:39:00;;;;;;;77.32;34.50;;;-1.80;99.90;;;;;;5085108;28;20547;-79
2022/12/10 07:41:26;;;;;;;71.57;31.02;;;-1.80;99.90;;;;;;5085558;28;20423;-78
2022/12/10 07:43:52;;;;;;;80.30;37.90;;;-1.80;99.90;;;;;;5049614;28;20150;-79
2022/12/10 07:46:27;;;;;;;80.85;37.95;;;-1.70;99.90;;;;;;5072200;28;20167;-79
2022/12/10 07:48:53;;;;;;;80.55;34.70;;;-1.80;99.90;;;;;;5089286;28;20055;-79
2022/12/10 07:51:20;;;;;;;78.40;37.40;;;-0.70;99.90;;;;;;5100462;28;20392;-79
2022/12/10 07:53:47;;;;;;;86.65;38.45;;;-1.80;99.90;;;;;;5066472;28;20495;-83
2022/12/10 07:56:13;;;;;;;92.35;42.90;;;-1.40;99.90;;;;;;5094039;28;20047;-78
2022/12/10 07:58:44;;;;;;;99.88;44.63;;;-1.90;99.90;;;;;;5084456;28;20043;-79
2022/12/10 08:01:15;;;;;;;96.20;42.65;;;-1.90;99.90;;;;;;5072154;28;20052;-79
2022/12/10 08:03:42;;;;;;;102.65;44.80;;;-2.00;99.90;;;;;;5092853;28;20052;-80
2022/12/10 08:06:14;;;;;;;94.38;43.50;;;-2.00;99.90;;;;;;5090676;28;20063;-80
2022/12/10 08:08:40;;;;;;;95.93;43.10;;;-2.00;99.90;;;;;;5091459;28;20044;-79
2022/12/10 08:11:07;;;;;;;104.60;45.97;;;-1.90;99.90;;;;;;5083546;28;20079;-80
2022/12/10 08:13:33;;;;;;;106.82;46.95;;;-1.90;99.90;;;;;;5091556;27;20506;-80
2022/12/10 08:16:10;;;;;;;106.82;45.20;;;-0.80;99.90;;;;;;5086679;28;20075;-80
2022/12/10 08:18:35;;;;;;;108.38;46.90;;;-1.80;99.90;;;;;;5091570;28;20575;-79
2022/12/10 08:21:11;;;;;;;107.97;45.90;;;-1.70;99.90;;;;;;5095298;28;20082;-81
2022/12/10 08:23:37;;;;;;;111.40;47.90;;;-1.70;99.90;;;;;;5098817;28;20044;-79
2022/12/10 08:26:04;;;;;;;108.75;46.13;;;-1.60;99.90;;;;;;5094421;28;20048;-79
2022/12/10 08:28:30;;;;;;;110.57;46.33;;;-1.60;99.90;;;;;;5091285;28;20055;-79
2022/12/10 08:30:55;;;;;;;107.32;46.65;;;-1.50;99.90;;;;;;5097563;27;20039;-79
2022/12/10 08:33:21;;;;;;;104.40;46.10;;;-1.50;99.90;;;;;;5081873;27;20053;-79
2022/12/10 08:35:47;;;;;;;105.50;45.20;;;-1.30;99.90;;;;;;5079634;28;20499;-79
2022/12/10 08:38:12;;;;;;;101.50;44.45;;;-1.50;99.90;;;;;;5102537;28;20034;-80
2022/12/10 08:40:40;;;;;;;98.05;44.50;;;-1.40;99.90;;;;;;5090047;28;20124;-80
2022/12/10 08:43:06;;;;;;;111.63;47.95;;;-1.40;99.90;;;;;;5086710;27;20149;-79
2022/12/10 08:45:31;;;;;;;115.43;48.90;;;-1.40;99.90;;;;;;5080805;28;20142;-80
2022/12/10 08:47:57;;;;;;;106.30;45.97;;;-1.30;99.90;;;;;;5089496;28;20466;-79
2022/12/10 08:50:23;;;;;;;105.32;47.17;;;-1.20;99.90;;;;;;5107668;28;20055;-79
2022/12/10 08:52:48;;;;;;;108.38;47.25;;;-1.10;99.90;;;;;;5112821;27;20048;-79
2022/12/10 08:55:14;;;;;;;103.03;47.53;;;-0.90;99.90;;;;;;5092585;28;20052;-78
2022/12/10 08:57:40;;;;;;;105.75;48.25;;;-1.10;99.90;;;;;;5093472;28;20046;-78
2022/12/10 09:00:07;;;;;;;111.53;49.70;;;-1.10;99.90;;;;;;5109882;27;20051;-79
2022/12/10 09:02:33;;;;;;;109.00;47.92;;;-1.00;99.90;;;;;;5084490;27;20040;-78
2022/12/10 09:04:58;;;;;;;116.35;49.47;;;-1.00;99.90;;;;;;5102386;27;20509;-78
2022/12/10 09:07:24;;;;;;;134.35;55.05;;;-0.80;99.90;;;;;;5102197;27;20417;-77
2022/12/10 09:09:50;;;;;;;106.80;46.97;;;-0.70;99.90;;;;;;5101849;27;20055;-78
2022/12/10 09:12:15;;;;;;;110.10;49.85;;;-0.60;99.90;;;;;;5099250;27;20036;-78
2022/12/10 09:14:41;;;;;;;95.03;44.08;;;-0.60;99.90;;;;;;5102775;27;20100;-77
2022/12/10 09:17:10;;;;;;;93.68;46.00;;;-0.60;99.90;;;;;;5074116;28;20488;-77
2022/12/10 09:19:36;;;;;;;94.85;46.85;;;-0.50;99.90;;;;;;5080005;28;20075;-77
2022/12/10 09:22:02;;;;;;;97.70;45.50;;;-0.40;99.90;;;;;;5093671;28;20094;-77
2022/12/10 09:24:28;;;;;;;92.53;45.17;;;-0.30;99.90;;;;;;5076894;28;20048;-77
2022/12/10 09:26:54;;;;;;;94.60;46.70;;;-0.20;99.90;;;;;;5105683;27;20417;-78
2022/12/10 09:29:19;;;;;;;102.43;48.53;;;-0.10;99.90;;;;;;5104376;27;20043;-77
2022/12/10 09:31:50;;;;;;;91.47;45.17;;;-0.10;99.90;;;;;;5091894;28;20047;-77
2022/12/10 09:34:16;;;;;;;92.28;46.90;;;0.10;99.90;;;;;;5099109;27;20059;-77
2022/12/10 09:36:41;;;;;;;90.85;45.88;;;0.10;99.90;;;;;;5096743;28;20302;-77
2022/12/10 09:39:07;;;;;;;89.25;45.13;;;0.20;99.90;;;;;;5103040;28;20377;-77
2022/12/10 09:42:10;;;;;;;86.57;44.10;;;0.90;99.90;;;;;;5125784;27;20123;-77
2022/12/10 09:45:00;;;;;;;84.68;44.80;;;0.30;99.90;;;;;;5096925;28;20052;-77
2022/12/10 09:47:56;;;;;;;91.13;46.25;;;0.40;99.90;;;;;;5107997;28;20166;-78
2022/12/10 09:50:30;;;;;;;85.38;45.50;;;0.50;99.90;;;;;;5084425;28;20055;-78
2022/12/10 09:52:59;;;;;;;85.32;45.22;;;0.60;99.90;;;;;;5085513;28;20047;-78
2022/12/10 09:55:36;;;;;;;82.53;41.33;;;0.70;99.90;;;;;;5088794;28;20066;-79
2022/12/10 09:58:05;;;;;;;88.38;46.17;;;0.70;99.90;;;;;;5097953;28;20130;-78
2022/12/10 10:00:36;;;;;;;83.72;45.28;;;0.80;99.90;;;;;;5100502;28;20122;-79
2022/12/10 10:03:04;;;;;;;80.18;42.72;;;0.70;99.90;;;;;;5098803;28;20054;-79
2022/12/10 10:05:40;;;;;;;83.50;45.38;;;0.80;99.90;;;;;;5100945;28;20075;-79
2022/12/10 10:08:23;;;;;;;83.03;45.67;;;0.80;99.90;;;;;;5080282;28;20048;-79
2022/12/10 10:10:49;;;;;;;86.10;45.60;;;1.90;99.90;;;;;;5100434;28;20228;-79
2022/12/10 10:13:28;;;;;;;82.72;42.95;;;1.00;99.90;;;;;;5099089;28;20106;-80
2022/12/10 10:15:54;;;;;;;85.82;45.72;;;0.80;99.90;;;;;;5117834;28;20057;-79
2022/12/10 10:18:37;;;;;;;83.00;44.50;;;0.80;99.90;;;;;;5095546;28;20039;-79
2022/12/10 10:21:07;;;;;;;81.53;42.03;;;0.70;99.90;;;;;;5090623;28;20058;-82
2022/12/10 10:23:33;;;;;;;90.25;46.45;;;0.70;99.90;;;;;;5093571;28;20135;-80
2022/12/10 10:25:59;;;;;;;84.40;43.33;;;0.70;99.90;;;;;;5099773;28;20053;-81
2022/12/10 10:28:26;;;;;;;78.78;43.13;;;0.70;99.90;;;;;;5099515;28;20039;-80
2022/12/10 10:30:53;;;;;;;82.55;43.95;;;1.40;99.90;;;;;;5102799;27;20123;-79
2022/12/10 10:33:19;;;;;;;78.40;42.33;;;0.80;99.90;;;;;;5101184;27;20081;-79
2022/12/10 10:35:49;;;;;;;75.78;41.88;;;0.70;99.90;;;;;;5108708;27;20072;-80
2022/12/10 10:38:23;;;;;;;79.63;43.55;;;0.90;99.90;;;;;;5079564;27;20052;-84
2022/12/10 10:40:56;;;;;;;85.40;45.83;;;0.70;99.90;;;;;;5096807;27;20688;-83
2022/12/10 10:43:41;;;;;;;86.70;45.20;;;0.80;99.90;;;;;;5099679;27;20062;-79
2022/12/10 10:46:22;;;;;;;81.50;44.40;;;0.80;99.90;;;;;;5102376;27;20051;-79
2022/12/10 10:48:48;;;;;;;83.07;44.17;;;0.90;99.90;;;;;;5097845;27;20118;-79
2022/12/10 10:51:18;;;;;;;78.53;43.58;;;0.90;99.90;;;;;;5077505;28;20491;-78
2022/12/10 10:53:46;;;;;;;81.80;44.28;;;0.90;99.90;;;;;;5098565;27;20085;-78
2022/12/10 10:56:20;;;;;;;78.53;43.20;;;0.90;99.90;;;;;;5092632;27;20058;-78
2022/12/10 10:59:01;;;;;;;83.65;44.30;;;0.80;99.90;;;;;;5099569;27;20043;-78
2022/12/10 11:01:49;;;;;;;84.65;44.60;;;0.80;99.90;;;;;;5093935;27;20051;-78
2022/12/10 11:04:16;;;;;;;93.95;46.13;;;0.70;99.90;;;;;;5096654;27;20043;-77
2022/12/10 11:06:43;;;;;;;91.95;46.67;;;0.60;99.90;;;;;;5082361;27;20048;-78
2022/12/10 11:09:20;;;;;;;87.90;44.15;;;0.60;99.90;;;;;;5100865;27;20563;-78
2022/12/10 11:11:51;;;;;;;92.65;46.65;;;0.80;99.90;;;;;;5102071;27;20071;-78
2022/12/10 11:14:46;;;;;;;86.72;45.60;;;0.50;99.90;;;;;;5097332;27;20123;-77
2022/12/10 11:17:15;;;;;;;88.88;45.67;;;0.40;99.90;;;;;;5087199;27;20528;-77
2022/12/10 11:19:53;;;;;;;89.20;45.67;;;0.40;99.90;;;;;;5115554;27;20086;-77
2022/12/10 11:22:24;;;;;;;88.10;45.33;;;0.40;99.90;;;;;;5080532;27;20131;-78
2022/12/10 11:24:50;;;;;;;87.53;44.38;;;0.40;99.90;;;;;;5094497;27;20495;-79
2022/12/10 11:27:45;;;;;;;87.75;45.72;;;0.30;99.90;;;;;;5089654;27;20072;-79
2022/12/10 11:30:17;;;;;;;87.00;43.80;;;0.30;99.90;;;;;;5091724;27;20047;-76
2022/12/10 11:32:43;;;;;;;90.65;44.85;;;0.90;99.90;;;;;;5083186;27;20044;-77
2022/12/10 11:35:29;;;;;;;91.53;45.78;;;0.30;99.90;;;;;;5089736;27;20055;-77
2022/12/10 11:38:06;;;;;;;87.93;45.00;;;0.30;99.90;;;;;;5113157;27;20039;-77
2022/12/10 11:40:40;;;;;;;85.63;42.83;;;0.30;99.90;;;;;;5093043;28;20487;-77
2022/12/10 11:43:41;;;;;;;92.50;46.30;;;0.40;99.90;;;;;;5095759;27;20062;-77
2022/12/10 11:46:19;;;;;;;89.95;45.50;;;0.40;99.90;;;;;;5078472;27;20043;-77
2022/12/10 11:49:14;;;;;;;84.15;42.30;;;0.30;99.90;;;;;;5105493;27;20058;-77
2022/12/10 11:52:04;;;;;;;86.20;45.10;;;0.40;99.90;;;;;;5100635;27;20376;-80
2022/12/10 11:54:53;;;;;;;92.20;44.53;;;0.30;99.90;;;;;;5125986;27;20074;-76
2022/12/10 11:58:22;;;;;;;96.28;46.97;;;0.30;99.90;;;;;;5097959;27;20056;-77
2022/12/10 12:01:22;;;;;;;100.13;47.08;;;0.30;99.90;;;;;;5059558;27;20116;-78
2022/12/10 12:03:53;;;;;;;94.95;44.95;;;0.20;99.90;;;;;;5109784;27;20495;-78
2022/12/10 12:06:44;;;;;;;94.63;45.70;;;0.20;99.90;;;;;;5117426;27;20055;-77
2022/12/10 12:09:27;;;;;;;93.82;44.63;;;0.20;99.90;;;;;;5112025;27;20460;-77
2022/12/10 12:12:24;;;;;;;90.85;45.55;;;0.60;99.90;;;;;;5094753;27;20492;-77
2022/12/10 12:15:02;;;;;;;91.28;42.90;;;0.20;99.90;;;;;;5092846;27;20052;-79
2022/12/10 12:17:33;;;;;;;99.45;44.92;;;0.20;99.90;;;;;;5101062;27;20047;-76
2022/12/10 12:20:01;;;;;;;86.38;41.45;;;0.20;99.90;;;;;;5104364;27;20111;-77
2022/12/10 12:22:38;;;;;;;91.88;44.67;;;0.20;99.90;;;;;;5101944;27;20051;-76
2022/12/10 12:25:29;;;;;;;91.72;45.10;;;0.20;99.90;;;;;;5080472;27;20118;-77
2022/12/10 12:28:08;;;;;;;96.72;44.47;;;0.20;99.90;;;;;;5093793;27;20043;-77
2022/12/10 12:30:35;;;;;;;102.35;47.28;;;0.20;99.90;;;;;;5097147;27;20082;-78
2022/12/10 12:33:13;;;;;;;102.85;46.08;;;0.20;99.90;;;;;;5103000;27;20042;-78
2022/12/10 12:35:52;;;;;;;93.13;45.13;;;0.20;99.90;;;;;;5094098;28;20561;-80
2022/12/10 12:38:33;;;;;;;96.85;45.80;;;0.20;99.90;;;;;;5095142;27;20093;-77
2022/12/10 12:41:32;;;;;;;95.57;45.10;;;0.20;99.90;;;;;;5101566;27;20043;-79
2022/12/10 12:44:14;;;;;;;95.95;44.53;;;0.10;99.90;;;;;;5094165;27;20077;-77
2022/12/10 12:46:44;;;;;;;96.63;45.22;;;0.10;99.90;;;;;;5093688;28;20047;-79
2022/12/10 12:49:20;;;;;;;97.40;47.03;;;0.10;99.90;;;;;;5104088;27;20098;-77
2022/12/10 12:51:56;;;;;;;105.32;47.55;;;0.10;99.90;;;;;;5098808;27;20134;-77
2022/12/10 12:54:22;;;;;;;99.88;47.03;;;0.10;99.90;;;;;;5083737;27;20105;-78